sensor_id;sensor_type;location;lat;lon;timestamp;P1;durP1;ratioP1;P2;durP2;ratioP2
62050;SDS011;48008;51.204;6.766;2022-07-23T00:01:30;41.63;;;22.33;;
62050;SDS011;48008;51.204;6.766;2022-07-23T00:03:57;45.10;;;20.55;;
62050;SDS011;48008;51.204;6.766;2022-07-23T00:06:24;46.42;;;21.48;;
62050;SDS011;48008;51.204;6.766;2022-07-23T00:08:51;43.05;;;20.75;;
62050;SDS011;48008;51.204;6.766;2022-07-23T00:11:18;44.22;;;21.63;;
62050;SDS011;48008;51.204;6.766;2022-07-23T00:13:46;38.28;;;19.63;;
62050;SDS011;48008;51.204;6.766;2022-07-23T00:16:12;40.45;;;20.75;;
62050;SDS011;48008;51.204;6.766;2022-07-23T00:18:39;44.10;;;21.00;;
62050;SDS011;48008;51.204;6.766;2022-07-23T00:21:06;40.08;;;20.00;;
62050;SDS011;48008;51.204;6.766;2022-07-23T00:23:33;39.30;;;18.80;;
62050;SDS011;48008;51.204;6.766;2022-07-23T00:26:00;34.58;;;18.25;;
62050;SDS011;48008;51.204;6.766;2022-07-23T00:28:26;38.75;;;19.05;;
62050;SDS011;48008;51.204;6.766;2022-07-23T00:30:53;43.90;;;19.52;;
62050;SDS011;48008;51.204;6.766;2022-07-23T00:33:20;36.33;;;19.27;;
62050;SDS011;48008;51.204;6.766;2022-07-23T00:35:47;37.45;;;18.50;;
62050;SDS011;48008;51.204;6.766;2022-07-23T00:38:13;43.20;;;20.58;;
62050;SDS011;48008;51.204;6.766;2022-07-23T00:40:40;38.17;;;19.98;;
62050;SDS011;48008;51.204;6.766;2022-07-23T00:43:07;39.88;;;21.02;;
62050;SDS011;48008;51.204;6.766;2022-07-23T00:45:34;43.67;;;20.73;;
62050;SDS011;48008;51.204;6.766;2022-07-23T00:48:01;39.45;;;21.10;;
62050;SDS011;48008;51.204;6.766;2022-07-23T00:50:28;37.17;;;19.98;;
62050;SDS011;48008;51.204;6.766;2022-07-23T00:52:55;38.33;;;20.90;;
62050;SDS011;48008;51.204;6.766;2022-07-23T00:55:22;36.55;;;20.10;;
62050;SDS011;48008;51.204;6.766;2022-07-23T00:57:50;42.53;;;21.42;;
62050;SDS011;48008;51.204;6.766;2022-07-23T01:00:17;44.90;;;21.40;;
62050;SDS011;48008;51.204;6.766;2022-07-23T01:02:44;38.58;;;20.85;;
62050;SDS011;48008;51.204;6.766;2022-07-23T01:05:10;40.33;;;21.02;;
62050;SDS011;48008;51.204;6.766;2022-07-23T01:07:38;43.83;;;21.25;;
62050;SDS011;48008;51.204;6.766;2022-07-23T01:10:05;40.38;;;20.30;;
62050;SDS011;48008;51.204;6.766;2022-07-23T01:12:53;41.75;;;21.27;;
62050;SDS011;48008;51.204;6.766;2022-07-23T01:15:21;44.38;;;21.88;;
62050;SDS011;48008;51.204;6.766;2022-07-23T01:17:48;46.30;;;22.33;;
62050;SDS011;48008;51.204;6.766;2022-07-23T01:20:15;40.40;;;21.40;;
62050;SDS011;48008;51.204;6.766;2022-07-23T01:22:42;42.05;;;21.70;;
62050;SDS011;48008;51.204;6.766;2022-07-23T01:25:09;42.47;;;20.70;;
62050;SDS011;48008;51.204;6.766;2022-07-23T01:27:38;40.47;;;22.00;;
62050;SDS011;48008;51.204;6.766;2022-07-23T01:30:05;39.33;;;21.40;;
62050;SDS011;48008;51.204;6.766;2022-07-23T01:32:32;40.65;;;21.42;;
62050;SDS011;48008;51.204;6.766;2022-07-23T01:34:59;42.85;;;21.55;;
62050;SDS011;48008;51.204;6.766;2022-07-23T01:37:25;41.20;;;21.77;;
62050;SDS011;48008;51.204;6.766;2022-07-23T01:39:53;38.28;;;20.67;;
62050;SDS011;48008;51.204;6.766;2022-07-23T01:42:20;42.72;;;20.98;;
62050;SDS011;48008;51.204;6.766;2022-07-23T01:44:46;40.55;;;21.30;;
62050;SDS011;48008;51.204;6.766;2022-07-23T01:47:18;38.63;;;20.85;;
62050;SDS011;48008;51.204;6.766;2022-07-23T01:49:46;43.35;;;21.58;;
62050;SDS011;48008;51.204;6.766;2022-07-23T01:52:26;41.10;;;21.88;;
62050;SDS011;48008;51.204;6.766;2022-07-23T01:54:53;43.00;;;21.05;;
62050;SDS011;48008;51.204;6.766;2022-07-23T01:57:20;40.03;;;21.05;;
62050;SDS011;48008;51.204;6.766;2022-07-23T01:59:47;40.97;;;21.77;;
62050;SDS011;48008;51.204;6.766;2022-07-23T02:02:13;39.00;;;21.05;;
62050;SDS011;48008;51.204;6.766;2022-07-23T02:04:40;39.88;;;21.25;;
62050;SDS011;48008;51.204;6.766;2022-07-23T02:07:07;44.28;;;21.55;;
62050;SDS011;48008;51.204;6.766;2022-07-23T02:09:34;48.92;;;20.75;;
62050;SDS011;48008;51.204;6.766;2022-07-23T02:12:01;44.22;;;22.17;;
62050;SDS011;48008;51.204;6.766;2022-07-23T02:14:27;40.70;;;20.70;;
62050;SDS011;48008;51.204;6.766;2022-07-23T02:16:55;41.08;;;20.15;;
62050;SDS011;48008;51.204;6.766;2022-07-23T02:19:22;37.38;;;20.85;;
62050;SDS011;48008;51.204;6.766;2022-07-23T02:21:49;41.35;;;22.15;;
62050;SDS011;48008;51.204;6.766;2022-07-23T02:24:18;42.45;;;23.25;;
62050;SDS011;48008;51.204;6.766;2022-07-23T02:26:45;48.35;;;22.20;;
62050;SDS011;48008;51.204;6.766;2022-07-23T02:29:11;43.58;;;21.40;;
62050;SDS011;48008;51.204;6.766;2022-07-23T02:31:39;38.58;;;21.38;;
62050;SDS011;48008;51.204;6.766;2022-07-23T02:34:06;42.88;;;21.67;;
62050;SDS011;48008;51.204;6.766;2022-07-23T02:36:33;38.75;;;20.83;;
62050;SDS011;48008;51.204;6.766;2022-07-23T02:39:02;43.85;;;21.40;;
62050;SDS011;48008;51.204;6.766;2022-07-23T02:41:32;40.53;;;21.02;;
62050;SDS011;48008;51.204;6.766;2022-07-23T02:43:58;38.97;;;21.35;;
62050;SDS011;48008;51.204;6.766;2022-07-23T02:46:25;42.47;;;20.67;;
62050;SDS011;48008;51.204;6.766;2022-07-23T02:48:53;47.75;;;21.10;;
62050;SDS011;48008;51.204;6.766;2022-07-23T02:51:19;38.53;;;21.45;;
62050;SDS011;48008;51.204;6.766;2022-07-23T02:53:52;43.83;;;20.73;;
62050;SDS011;48008;51.204;6.766;2022-07-23T02:56:19;45.17;;;21.02;;
62050;SDS011;48008;51.204;6.766;2022-07-23T02:58:46;47.67;;;20.67;;
62050;SDS011;48008;51.204;6.766;2022-07-23T03:01:13;37.70;;;20.15;;
62050;SDS011;48008;51.204;6.766;2022-07-23T03:03:40;40.80;;;20.75;;
62050;SDS011;48008;51.204;6.766;2022-07-23T03:06:06;40.33;;;20.48;;
62050;SDS011;48008;51.204;6.766;2022-07-23T03:08:34;42.60;;;20.15;;
62050;SDS011;48008;51.204;6.766;2022-07-23T03:11:00;37.92;;;19.52;;
62050;SDS011;48008;51.204;6.766;2022-07-23T03:13:27;41.30;;;20.95;;
62050;SDS011;48008;51.204;6.766;2022-07-23T03:15:55;37.90;;;19.83;;
62050;SDS011;48008;51.204;6.766;2022-07-23T03:18:23;47.25;;;20.85;;
62050;SDS011;48008;51.204;6.766;2022-07-23T03:20:50;37.42;;;20.00;;
62050;SDS011;48008;51.204;6.766;2022-07-23T03:23:16;46.15;;;21.13;;
62050;SDS011;48008;51.204;6.766;2022-07-23T03:25:43;40.10;;;20.52;;
62050;SDS011;48008;51.204;6.766;2022-07-23T03:28:11;43.88;;;20.63;;
62050;SDS011;48008;51.204;6.766;2022-07-23T03:30:38;41.13;;;20.65;;
62050;SDS011;48008;51.204;6.766;2022-07-23T03:33:05;38.05;;;20.55;;
62050;SDS011;48008;51.204;6.766;2022-07-23T03:35:32;39.15;;;19.90;;
62050;SDS011;48008;51.204;6.766;2022-07-23T03:38:18;40.60;;;19.52;;
62050;SDS011;48008;51.204;6.766;2022-07-23T03:40:45;38.20;;;20.48;;
62050;SDS011;48008;51.204;6.766;2022-07-23T03:43:12;39.35;;;19.75;;
62050;SDS011;48008;51.204;6.766;2022-07-23T03:45:38;38.28;;;20.27;;
62050;SDS011;48008;51.204;6.766;2022-07-23T03:48:06;38.70;;;19.70;;
62050;SDS011;48008;51.204;6.766;2022-07-23T03:50:32;35.75;;;19.33;;
62050;SDS011;48008;51.204;6.766;2022-07-23T03:53:00;43.95;;;20.75;;
62050;SDS011;48008;51.204;6.766;2022-07-23T03:55:27;44.80;;;20.20;;
62050;SDS011;48008;51.204;6.766;2022-07-23T03:57:55;37.97;;;20.38;;
62050;SDS011;48008;51.204;6.766;2022-07-23T04:00:22;38.85;;;20.35;;
62050;SDS011;48008;51.204;6.766;2022-07-23T04:02:49;37.05;;;19.77;;
62050;SDS011;48008;51.204;6.766;2022-07-23T04:05:17;41.00;;;20.92;;
62050;SDS011;48008;51.204;6.766;2022-07-23T04:07:47;44.05;;;21.60;;
62050;SDS011;48008;51.204;6.766;2022-07-23T04:10:14;42.03;;;20.58;;
62050;SDS011;48008;51.204;6.766;2022-07-23T04:12:41;40.13;;;20.67;;
62050;SDS011;48008;51.204;6.766;2022-07-23T04:15:08;41.55;;;20.02;;
62050;SDS011;48008;51.204;6.766;2022-07-23T04:17:35;40.38;;;20.13;;
62050;SDS011;48008;51.204;6.766;2022-07-23T04:20:03;44.92;;;21.65;;
62050;SDS011;48008;51.204;6.766;2022-07-23T04:22:36;44.05;;;20.95;;
62050;SDS011;48008;51.204;6.766;2022-07-23T04:25:03;42.35;;;19.92;;
62050;SDS011;48008;51.204;6.766;2022-07-23T04:27:30;41.85;;;19.40;;
62050;SDS011;48008;51.204;6.766;2022-07-23T04:29:59;42.75;;;21.30;;
62050;SDS011;48008;51.204;6.766;2022-07-23T04:32:26;46.40;;;21.52;;
62050;SDS011;48008;51.204;6.766;2022-07-23T04:34:53;49.65;;;20.65;;
62050;SDS011;48008;51.204;6.766;2022-07-23T04:37:19;47.80;;;21.80;;
62050;SDS011;48008;51.204;6.766;2022-07-23T04:39:46;41.00;;;21.92;;
62050;SDS011;48008;51.204;6.766;2022-07-23T04:42:13;41.13;;;20.92;;
62050;SDS011;48008;51.204;6.766;2022-07-23T04:44:40;39.33;;;20.25;;
62050;SDS011;48008;51.204;6.766;2022-07-23T04:47:07;38.72;;;20.38;;
62050;SDS011;48008;51.204;6.766;2022-07-23T04:49:34;37.75;;;19.40;;
62050;SDS011;48008;51.204;6.766;2022-07-23T04:52:00;42.10;;;19.67;;
62050;SDS011;48008;51.204;6.766;2022-07-23T04:54:28;37.35;;;19.60;;
62050;SDS011;48008;51.204;6.766;2022-07-23T04:56:55;38.53;;;19.38;;
62050;SDS011;48008;51.204;6.766;2022-07-23T04:59:21;34.08;;;18.42;;
62050;SDS011;48008;51.204;6.766;2022-07-23T05:01:54;36.92;;;18.95;;
62050;SDS011;48008;51.204;6.766;2022-07-23T05:04:21;42.58;;;19.63;;
62050;SDS011;48008;51.204;6.766;2022-07-23T05:06:48;33.53;;;19.25;;
62050;SDS011;48008;51.204;6.766;2022-07-23T05:09:14;37.72;;;18.88;;
62050;SDS011;48008;51.204;6.766;2022-07-23T05:11:41;34.20;;;18.52;;
62050;SDS011;48008;51.204;6.766;2022-07-23T05:14:08;36.00;;;19.10;;
62050;SDS011;48008;51.204;6.766;2022-07-23T05:16:34;36.53;;;19.58;;
62050;SDS011;48008;51.204;6.766;2022-07-23T05:19:07;37.20;;;19.58;;
62050;SDS011;48008;51.204;6.766;2022-07-23T05:21:36;36.20;;;18.15;;
62050;SDS011;48008;51.204;6.766;2022-07-23T05:24:02;40.83;;;18.80;;
62050;SDS011;48008;51.204;6.766;2022-07-23T05:26:29;34.78;;;18.80;;
62050;SDS011;48008;51.204;6.766;2022-07-23T05:28:56;35.67;;;18.95;;
62050;SDS011;48008;51.204;6.766;2022-07-23T05:31:24;35.88;;;19.65;;
62050;SDS011;48008;51.204;6.766;2022-07-23T05:33:51;36.55;;;19.75;;
62050;SDS011;48008;51.204;6.766;2022-07-23T05:36:18;35.38;;;19.10;;
62050;SDS011;48008;51.204;6.766;2022-07-23T05:38:51;37.78;;;20.98;;
62050;SDS011;48008;51.204;6.766;2022-07-23T05:41:19;39.78;;;20.23;;
62050;SDS011;48008;51.204;6.766;2022-07-23T05:43:46;42.35;;;20.77;;
62050;SDS011;48008;51.204;6.766;2022-07-23T05:46:14;39.78;;;22.02;;
62050;SDS011;48008;51.204;6.766;2022-07-23T05:48:42;38.97;;;20.30;;
62050;SDS011;48008;51.204;6.766;2022-07-23T05:51:22;39.63;;;20.50;;
62050;SDS011;48008;51.204;6.766;2022-07-23T05:53:50;41.03;;;21.42;;
62050;SDS011;48008;51.204;6.766;2022-07-23T05:56:19;41.85;;;22.23;;
62050;SDS011;48008;51.204;6.766;2022-07-23T05:58:47;41.70;;;21.40;;
62050;SDS011;48008;51.204;6.766;2022-07-23T06:01:16;41.42;;;20.80;;
62050;SDS011;48008;51.204;6.766;2022-07-23T06:03:49;38.55;;;20.65;;
62050;SDS011;48008;51.204;6.766;2022-07-23T06:06:16;43.38;;;22.05;;
62050;SDS011;48008;51.204;6.766;2022-07-23T06:08:43;46.38;;;21.85;;
62050;SDS011;48008;51.204;6.766;2022-07-23T06:11:10;48.95;;;22.75;;
62050;SDS011;48008;51.204;6.766;2022-07-23T06:13:37;43.17;;;22.23;;
62050;SDS011;48008;51.204;6.766;2022-07-23T06:16:04;44.03;;;22.42;;
62050;SDS011;48008;51.204;6.766;2022-07-23T06:18:31;42.97;;;22.65;;
62050;SDS011;48008;51.204;6.766;2022-07-23T06:20:57;47.75;;;23.15;;
62050;SDS011;48008;51.204;6.766;2022-07-23T06:23:26;47.22;;;24.35;;
62050;SDS011;48008;51.204;6.766;2022-07-23T06:25:53;48.42;;;24.17;;
62050;SDS011;48008;51.204;6.766;2022-07-23T06:28:20;49.40;;;24.30;;
62050;SDS011;48008;51.204;6.766;2022-07-23T06:30:46;46.67;;;24.67;;
62050;SDS011;48008;51.204;6.766;2022-07-23T06:33:14;50.88;;;24.63;;
62050;SDS011;48008;51.204;6.766;2022-07-23T06:35:40;49.53;;;25.33;;
62050;SDS011;48008;51.204;6.766;2022-07-23T06:38:07;56.13;;;27.08;;
62050;SDS011;48008;51.204;6.766;2022-07-23T06:40:34;54.88;;;27.98;;
62050;SDS011;48008;51.204;6.766;2022-07-23T06:43:01;60.85;;;27.20;;
62050;SDS011;48008;51.204;6.766;2022-07-23T06:45:28;60.03;;;27.77;;
62050;SDS011;48008;51.204;6.766;2022-07-23T06:47:55;59.63;;;28.17;;
62050;SDS011;48008;51.204;6.766;2022-07-23T06:50:21;56.15;;;26.63;;
62050;SDS011;48008;51.204;6.766;2022-07-23T06:52:48;54.83;;;27.05;;
62050;SDS011;48008;51.204;6.766;2022-07-23T06:55:15;60.38;;;27.52;;
62050;SDS011;48008;51.204;6.766;2022-07-23T06:57:44;58.20;;;27.45;;
62050;SDS011;48008;51.204;6.766;2022-07-23T07:00:11;59.95;;;30.02;;
62050;SDS011;48008;51.204;6.766;2022-07-23T07:02:38;56.85;;;26.98;;
62050;SDS011;48008;51.204;6.766;2022-07-23T07:05:05;51.00;;;25.38;;
62050;SDS011;48008;51.204;6.766;2022-07-23T07:07:32;58.50;;;27.08;;
62050;SDS011;48008;51.204;6.766;2022-07-23T07:10:00;52.67;;;25.35;;
62050;SDS011;48008;51.204;6.766;2022-07-23T07:12:28;48.05;;;23.42;;
62050;SDS011;48008;51.204;6.766;2022-07-23T07:14:55;45.28;;;22.73;;
62050;SDS011;48008;51.204;6.766;2022-07-23T07:17:23;47.72;;;21.38;;
62050;SDS011;48008;51.204;6.766;2022-07-23T07:19:49;46.90;;;22.90;;
62050;SDS011;48008;51.204;6.766;2022-07-23T07:22:16;40.47;;;20.70;;
62050;SDS011;48008;51.204;6.766;2022-07-23T07:24:44;47.90;;;21.98;;
62050;SDS011;48008;51.204;6.766;2022-07-23T07:27:11;42.55;;;22.67;;
62050;SDS011;48008;51.204;6.766;2022-07-23T07:29:37;48.35;;;23.20;;
62050;SDS011;48008;51.204;6.766;2022-07-23T07:32:05;40.88;;;22.63;;
62050;SDS011;48008;51.204;6.766;2022-07-23T07:34:32;39.97;;;21.70;;
62050;SDS011;48008;51.204;6.766;2022-07-23T07:36:58;48.20;;;22.40;;
62050;SDS011;48008;51.204;6.766;2022-07-23T07:39:25;47.72;;;21.98;;
62050;SDS011;48008;51.204;6.766;2022-07-23T07:41:52;44.50;;;24.40;;
62050;SDS011;48008;51.204;6.766;2022-07-23T07:44:19;50.53;;;24.90;;
62050;SDS011;48008;51.204;6.766;2022-07-23T07:46:45;45.10;;;23.73;;
62050;SDS011;48008;51.204;6.766;2022-07-23T07:49:12;53.17;;;26.00;;
62050;SDS011;48008;51.204;6.766;2022-07-23T07:51:39;48.53;;;25.17;;
62050;SDS011;48008;51.204;6.766;2022-07-23T07:54:06;51.05;;;23.70;;
62050;SDS011;48008;51.204;6.766;2022-07-23T07:56:32;45.08;;;23.60;;
62050;SDS011;48008;51.204;6.766;2022-07-23T07:58:59;46.72;;;23.30;;
62050;SDS011;48008;51.204;6.766;2022-07-23T08:01:27;42.13;;;21.92;;
62050;SDS011;48008;51.204;6.766;2022-07-23T08:03:54;42.33;;;21.42;;
62050;SDS011;48008;51.204;6.766;2022-07-23T08:06:20;35.00;;;20.25;;
62050;SDS011;48008;51.204;6.766;2022-07-23T08:08:47;41.10;;;21.88;;
62050;SDS011;48008;51.204;6.766;2022-07-23T08:11:14;49.40;;;27.75;;
62050;SDS011;48008;51.204;6.766;2022-07-23T08:13:41;55.03;;;30.27;;
62050;SDS011;48008;51.204;6.766;2022-07-23T08:16:10;58.42;;;31.40;;
62050;SDS011;48008;51.204;6.766;2022-07-23T08:18:37;52.75;;;32.60;;
62050;SDS011;48008;51.204;6.766;2022-07-23T08:21:04;49.65;;;34.80;;
62050;SDS011;48008;51.204;6.766;2022-07-23T08:23:31;60.08;;;37.10;;
62050;SDS011;48008;51.204;6.766;2022-07-23T08:25:59;64.60;;;36.90;;
62050;SDS011;48008;51.204;6.766;2022-07-23T08:28:27;50.65;;;32.83;;
62050;SDS011;48008;51.204;6.766;2022-07-23T08:30:54;60.50;;;33.97;;
62050;SDS011;48008;51.204;6.766;2022-07-23T08:33:20;53.72;;;35.38;;
62050;SDS011;48008;51.204;6.766;2022-07-23T08:35:48;62.38;;;33.90;;
62050;SDS011;48008;51.204;6.766;2022-07-23T08:38:18;58.45;;;36.25;;
62050;SDS011;48008;51.204;6.766;2022-07-23T08:40:47;63.80;;;35.90;;
62050;SDS011;48008;51.204;6.766;2022-07-23T08:43:17;55.58;;;32.35;;
62050;SDS011;48008;51.204;6.766;2022-07-23T08:45:47;52.15;;;27.33;;
62050;SDS011;48008;51.204;6.766;2022-07-23T08:48:16;41.65;;;22.45;;
62050;SDS011;48008;51.204;6.766;2022-07-23T08:50:47;38.47;;;21.38;;
62050;SDS011;48008;51.204;6.766;2022-07-23T08:53:17;40.15;;;21.92;;
62050;SDS011;48008;51.204;6.766;2022-07-23T08:55:45;37.17;;;21.15;;
62050;SDS011;48008;51.204;6.766;2022-07-23T08:58:14;37.53;;;21.15;;
62050;SDS011;48008;51.204;6.766;2022-07-23T09:00:42;36.17;;;20.27;;
62050;SDS011;48008;51.204;6.766;2022-07-23T09:03:26;33.55;;;18.95;;
62050;SDS011;48008;51.204;6.766;2022-07-23T09:05:54;32.55;;;18.70;;
62050;SDS011;48008;51.204;6.766;2022-07-23T09:08:25;35.13;;;19.20;;
62050;SDS011;48008;51.204;6.766;2022-07-23T09:11:01;31.42;;;16.63;;
62050;SDS011;48008;51.204;6.766;2022-07-23T09:16:11;28.45;;;14.57;;
62050;SDS011;48008;51.204;6.766;2022-07-23T09:18:44;27.40;;;14.00;;
62050;SDS011;48008;51.204;6.766;2022-07-23T09:23:53;25.83;;;13.48;;
62050;SDS011;48008;51.204;6.766;2022-07-23T09:26:24;24.85;;;13.90;;
62050;SDS011;48008;51.204;6.766;2022-07-23T09:29:01;26.10;;;11.98;;
62050;SDS011;48008;51.204;6.766;2022-07-23T09:31:52;26.92;;;12.43;;
62050;SDS011;48008;51.204;6.766;2022-07-23T09:34:26;23.85;;;11.73;;
62050;SDS011;48008;51.204;6.766;2022-07-23T09:36:55;21.42;;;12.35;;
62050;SDS011;48008;51.204;6.766;2022-07-23T09:39:34;22.77;;;12.88;;
62050;SDS011;48008;51.204;6.766;2022-07-23T09:42:17;22.98;;;12.52;;
62050;SDS011;48008;51.204;6.766;2022-07-23T09:44:48;29.58;;;12.13;;
62050;SDS011;48008;51.204;6.766;2022-07-23T09:47:16;23.08;;;11.63;;
62050;SDS011;48008;51.204;6.766;2022-07-23T09:50:07;19.40;;;9.95;;
62050;SDS011;48008;51.204;6.766;2022-07-23T09:52:43;22.05;;;10.25;;
62050;SDS011;48008;51.204;6.766;2022-07-23T09:55:15;21.30;;;8.90;;
62050;SDS011;48008;51.204;6.766;2022-07-23T09:57:43;17.25;;;9.63;;
62050;SDS011;48008;51.204;6.766;2022-07-23T10:00:12;17.05;;;9.23;;
62050;SDS011;48008;51.204;6.766;2022-07-23T10:02:40;22.10;;;9.77;;
62050;SDS011;48008;51.204;6.766;2022-07-23T10:05:27;16.63;;;8.82;;
62050;SDS011;48008;51.204;6.766;2022-07-23T10:08:15;17.95;;;7.47;;
62050;SDS011;48008;51.204;6.766;2022-07-23T10:11:04;19.15;;;9.55;;
62050;SDS011;48008;51.204;6.766;2022-07-23T10:13:44;16.25;;;8.07;;
62050;SDS011;48008;51.204;6.766;2022-07-23T10:16:43;18.35;;;8.48;;
62050;SDS011;48008;51.204;6.766;2022-07-23T10:19:10;16.80;;;8.35;;
62050;SDS011;48008;51.204;6.766;2022-07-23T10:21:39;17.00;;;8.20;;
62050;SDS011;48008;51.204;6.766;2022-07-23T10:24:12;16.15;;;8.45;;
62050;SDS011;48008;51.204;6.766;2022-07-23T10:26:55;14.73;;;7.97;;
62050;SDS011;48008;51.204;6.766;2022-07-23T10:29:36;18.35;;;7.80;;
62050;SDS011;48008;51.204;6.766;2022-07-23T10:35:18;15.60;;;7.25;;
62050;SDS011;48008;51.204;6.766;2022-07-23T10:38:12;17.02;;;8.15;;
62050;SDS011;48008;51.204;6.766;2022-07-23T10:40:54;17.60;;;7.25;;
62050;SDS011;48008;51.204;6.766;2022-07-23T10:46:34;16.92;;;6.97;;
62050;SDS011;48008;51.204;6.766;2022-07-23T10:49:41;20.65;;;6.35;;
62050;SDS011;48008;51.204;6.766;2022-07-23T10:54:45;20.05;;;6.32;;
62050;SDS011;48008;51.204;6.766;2022-07-23T10:57:23;13.88;;;6.07;;
62050;SDS011;48008;51.204;6.766;2022-07-23T11:02:40;16.98;;;5.97;;
62050;SDS011;48008;51.204;6.766;2022-07-23T11:05:09;16.30;;;6.00;;
62050;SDS011;48008;51.204;6.766;2022-07-23T11:08:09;15.68;;;6.40;;
62050;SDS011;48008;51.204;6.766;2022-07-23T11:10:35;12.90;;;6.05;;
62050;SDS011;48008;51.204;6.766;2022-07-23T11:13:36;15.35;;;4.88;;
62050;SDS011;48008;51.204;6.766;2022-07-23T11:32:08;14.55;;;6.88;;
62050;SDS011;48008;51.204;6.766;2022-07-23T11:34:45;16.13;;;7.35;;
62050;SDS011;48008;51.204;6.766;2022-07-23T11:37:31;22.40;;;7.00;;
62050;SDS011;48008;51.204;6.766;2022-07-23T11:40:05;17.50;;;7.53;;
62050;SDS011;48008;51.204;6.766;2022-07-23T11:42:35;23.80;;;8.25;;
62050;SDS011;48008;51.204;6.766;2022-07-23T11:45:05;18.23;;;7.75;;
62050;SDS011;48008;51.204;6.766;2022-07-23T11:47:34;24.02;;;8.80;;
62050;SDS011;48008;51.204;6.766;2022-07-23T11:50:02;18.25;;;8.82;;
62050;SDS011;48008;51.204;6.766;2022-07-23T11:52:31;18.63;;;6.70;;
62050;SDS011;48008;51.204;6.766;2022-07-23T11:55:00;13.27;;;6.03;;
62050;SDS011;48008;51.204;6.766;2022-07-23T11:57:31;18.42;;;7.43;;
62050;SDS011;48008;51.204;6.766;2022-07-23T12:02:41;14.38;;;7.07;;
62050;SDS011;48008;51.204;6.766;2022-07-23T12:05:11;14.37;;;6.47;;
62050;SDS011;48008;51.204;6.766;2022-07-23T12:07:40;14.55;;;5.47;;
62050;SDS011;48008;51.204;6.766;2022-07-23T12:12:51;10.73;;;4.80;;
62050;SDS011;48008;51.204;6.766;2022-07-23T12:15:20;12.80;;;6.00;;
62050;SDS011;48008;51.204;6.766;2022-07-23T12:17:50;13.50;;;5.32;;
62050;SDS011;48008;51.204;6.766;2022-07-23T12:20:19;12.55;;;5.57;;
62050;SDS011;48008;51.204;6.766;2022-07-23T12:22:50;13.18;;;5.10;;
62050;SDS011;48008;51.204;6.766;2022-07-23T12:25:20;10.93;;;5.28;;
62050;SDS011;48008;51.204;6.766;2022-07-23T12:28:20;12.68;;;4.85;;
62050;SDS011;48008;51.204;6.766;2022-07-23T12:30:38;14.38;;;5.40;;
62050;SDS011;48008;51.204;6.766;2022-07-23T12:33:13;13.27;;;4.93;;
62050;SDS011;48008;51.204;6.766;2022-07-23T12:35:43;17.02;;;5.25;;
62050;SDS011;48008;51.204;6.766;2022-07-23T12:38:14;12.52;;;5.15;;
62050;SDS011;48008;51.204;6.766;2022-07-23T12:40:46;11.18;;;4.55;;
62050;SDS011;48008;51.204;6.766;2022-07-23T12:43:20;11.52;;;4.18;;
62050;SDS011;48008;51.204;6.766;2022-07-23T12:45:50;14.50;;;4.80;;
62050;SDS011;48008;51.204;6.766;2022-07-23T12:48:24;11.60;;;4.60;;
62050;SDS011;48008;51.204;6.766;2022-07-23T12:50:56;11.98;;;4.57;;
62050;SDS011;48008;51.204;6.766;2022-07-23T12:53:36;11.05;;;3.97;;
62050;SDS011;48008;51.204;6.766;2022-07-23T12:56:21;14.15;;;4.80;;
62050;SDS011;48008;51.204;6.766;2022-07-23T12:58:57;15.23;;;4.70;;
62050;SDS011;48008;51.204;6.766;2022-07-23T13:01:33;11.95;;;5.50;;
62050;SDS011;48008;51.204;6.766;2022-07-23T13:04:09;12.32;;;4.53;;
62050;SDS011;48008;51.204;6.766;2022-07-23T13:06:42;16.98;;;4.40;;
62050;SDS011;48008;51.204;6.766;2022-07-23T13:09:12;13.32;;;4.30;;
62050;SDS011;48008;51.204;6.766;2022-07-23T13:11:41;12.13;;;3.90;;
62050;SDS011;48008;51.204;6.766;2022-07-23T13:14:09;9.20;;;4.22;;
62050;SDS011;48008;51.204;6.766;2022-07-23T13:16:36;13.77;;;4.00;;
62050;SDS011;48008;51.204;6.766;2022-07-23T13:19:03;12.25;;;3.70;;
62050;SDS011;48008;51.204;6.766;2022-07-23T13:21:29;11.48;;;4.03;;
62050;SDS011;48008;51.204;6.766;2022-07-23T13:23:56;11.90;;;3.85;;
62050;SDS011;48008;51.204;6.766;2022-07-23T13:26:23;11.13;;;4.15;;
62050;SDS011;48008;51.204;6.766;2022-07-23T13:28:50;11.38;;;3.70;;
62050;SDS011;48008;51.204;6.766;2022-07-23T13:31:17;8.07;;;3.63;;
62050;SDS011;48008;51.204;6.766;2022-07-23T13:33:45;10.95;;;4.03;;
62050;SDS011;48008;51.204;6.766;2022-07-23T13:36:12;8.77;;;3.95;;
62050;SDS011;48008;51.204;6.766;2022-07-23T13:38:39;8.65;;;3.88;;
62050;SDS011;48008;51.204;6.766;2022-07-23T13:41:06;10.73;;;3.80;;
62050;SDS011;48008;51.204;6.766;2022-07-23T13:43:32;8.85;;;3.60;;
62050;SDS011;48008;51.204;6.766;2022-07-23T13:45:59;11.02;;;3.67;;
62050;SDS011;48008;51.204;6.766;2022-07-23T13:48:26;8.90;;;3.70;;
62050;SDS011;48008;51.204;6.766;2022-07-23T13:50:53;11.75;;;3.70;;
62050;SDS011;48008;51.204;6.766;2022-07-23T13:53:20;13.25;;;3.60;;
62050;SDS011;48008;51.204;6.766;2022-07-23T13:55:50;9.23;;;3.70;;
62050;SDS011;48008;51.204;6.766;2022-07-23T13:58:18;9.57;;;3.63;;
62050;SDS011;48008;51.204;6.766;2022-07-23T14:00:50;13.00;;;3.90;;
62050;SDS011;48008;51.204;6.766;2022-07-23T14:03:20;9.95;;;3.67;;
62050;SDS011;48008;51.204;6.766;2022-07-23T14:05:50;9.27;;;3.55;;
62050;SDS011;48008;51.204;6.766;2022-07-23T14:08:19;11.10;;;3.92;;
62050;SDS011;48008;51.204;6.766;2022-07-23T14:10:45;8.52;;;3.60;;
62050;SDS011;48008;51.204;6.766;2022-07-23T14:13:12;7.82;;;3.90;;
62050;SDS011;48008;51.204;6.766;2022-07-23T14:15:39;9.25;;;3.60;;
62050;SDS011;48008;51.204;6.766;2022-07-23T14:18:07;8.80;;;3.75;;
62050;SDS011;48008;51.204;6.766;2022-07-23T14:20:33;11.27;;;4.18;;
62050;SDS011;48008;51.204;6.766;2022-07-23T14:23:00;9.15;;;4.13;;
62050;SDS011;48008;51.204;6.766;2022-07-23T14:25:28;10.95;;;4.60;;
62050;SDS011;48008;51.204;6.766;2022-07-23T14:27:55;8.63;;;4.18;;
62050;SDS011;48008;51.204;6.766;2022-07-23T14:30:21;9.82;;;4.07;;
62050;SDS011;48008;51.204;6.766;2022-07-23T14:32:50;11.23;;;3.92;;
62050;SDS011;48008;51.204;6.766;2022-07-23T14:35:18;8.05;;;3.75;;
62050;SDS011;48008;51.204;6.766;2022-07-23T14:37:45;11.88;;;3.83;;
62050;SDS011;48008;51.204;6.766;2022-07-23T14:40:12;11.45;;;3.80;;
62050;SDS011;48008;51.204;6.766;2022-07-23T14:42:39;10.23;;;3.88;;
62050;SDS011;48008;51.204;6.766;2022-07-23T14:45:06;11.75;;;4.30;;
62050;SDS011;48008;51.204;6.766;2022-07-23T14:47:33;10.35;;;4.43;;
62050;SDS011;48008;51.204;6.766;2022-07-23T14:49:59;10.77;;;4.70;;
62050;SDS011;48008;51.204;6.766;2022-07-23T14:52:26;11.98;;;3.95;;
62050;SDS011;48008;51.204;6.766;2022-07-23T14:54:53;8.32;;;3.70;;
62050;SDS011;48008;51.204;6.766;2022-07-23T14:57:19;11.55;;;3.90;;
62050;SDS011;48008;51.204;6.766;2022-07-23T14:59:49;9.55;;;3.63;;
62050;SDS011;48008;51.204;6.766;2022-07-23T15:02:15;10.38;;;3.65;;
62050;SDS011;48008;51.204;6.766;2022-07-23T15:04:42;9.90;;;3.75;;
62050;SDS011;48008;51.204;6.766;2022-07-23T15:07:09;8.85;;;3.88;;
62050;SDS011;48008;51.204;6.766;2022-07-23T15:09:35;10.93;;;3.95;;
62050;SDS011;48008;51.204;6.766;2022-07-23T15:12:02;10.13;;;3.80;;
62050;SDS011;48008;51.204;6.766;2022-07-23T15:14:29;10.05;;;3.40;;
62050;SDS011;48008;51.204;6.766;2022-07-23T15:17:00;9.23;;;3.80;;